createdAt,value
2018-05-12T00:01:10.262Z,13.37
2018-05-12T00:03:37.841Z,12.70
2018-05-12T00:06:05.368Z,11.53
2018-05-12T00:08:32.996Z,11.90
2018-05-12T00:11:00.601Z,11.60
2018-05-12T00:13:28.222Z,12.20
2018-05-12T00:15:55.765Z,12.37
2018-05-12T00:18:23.336Z,11.80
2018-05-12T00:20:50.865Z,11.80
2018-05-12T00:23:18.429Z,11.70
2018-05-12T00:25:46.066Z,12.33
2018-05-12T00:28:13.585Z,12.73
2018-05-12T00:30:42.134Z,13.90
2018-05-12T00:33:09.977Z,13.52
2018-05-12T00:35:37.535Z,12.77
2018-05-12T00:38:05.098Z,12.43
2018-05-12T00:40:32.663Z,11.90
2018-05-12T00:43:00.367Z,11.90
2018-05-12T00:45:27.812Z,11.70
2018-05-12T00:47:55.559Z,11.93
2018-05-12T00:50:23.142Z,12.60
2018-05-12T00:52:50.808Z,16.00
2018-05-12T00:55:18.683Z,15.90
2018-05-12T00:57:46.262Z,16.13
2018-05-12T01:00:14.233Z,15.50
2018-05-12T01:02:41.829Z,16.00
2018-05-12T01:05:09.396Z,15.67
2018-05-12T01:07:37.141Z,16.37
2018-05-12T01:10:04.735Z,19.00
2018-05-12T01:12:32.319Z,19.60
2018-05-12T01:15:00.553Z,19.20
2018-05-12T01:17:28.089Z,18.97
2018-05-12T01:19:55.660Z,16.93
2018-05-12T01:22:23.237Z,18.00
2018-05-12T01:24:50.789Z,17.27
2018-05-12T01:27:18.444Z,15.13
2018-05-12T01:29:45.999Z,15.57
2018-05-12T01:32:13.533Z,14.27
2018-05-12T01:34:41.164Z,14.60
2018-05-12T01:37:08.700Z,15.07
2018-05-12T01:39:36.232Z,13.17
2018-05-12T01:42:03.839Z,12.67
2018-05-12T01:44:31.380Z,13.30
2018-05-12T01:46:58.940Z,12.87
2018-05-12T01:49:26.496Z,12.30
2018-05-12T01:51:54.052Z,12.63
2018-05-12T01:54:21.626Z,12.77
2018-05-12T01:56:49.692Z,12.63
2018-05-12T01:59:17.225Z,12.37
2018-05-12T02:01:44.802Z,12.57
2018-05-12T02:04:12.352Z,11.77
2018-05-12T02:06:39.914Z,13.17
2018-05-12T02:09:07.443Z,12.77
2018-05-12T02:11:35.811Z,11.93
2018-05-12T02:14:03.368Z,16.17
2018-05-12T02:16:31.331Z,15.47
2018-05-12T02:18:59.295Z,13.67
2018-05-12T02:21:26.874Z,14.10
2018-05-12T02:23:54.444Z,13.40
2018-05-12T02:26:22.004Z,12.70
2018-05-12T02:28:49.752Z,11.83
2018-05-12T02:31:17.320Z,12.33
2018-05-12T02:33:45.264Z,12.10
2018-05-12T02:36:13.251Z,12.90
2018-05-12T02:38:41.205Z,13.43
2018-05-12T02:41:08.752Z,13.43
2018-05-12T02:43:36.316Z,13.27
2018-05-12T02:46:05.049Z,14.30
2018-05-12T02:48:32.632Z,15.17
2018-05-12T02:51:00.187Z,14.47
2018-05-12T02:53:28.697Z,14.10
2018-05-12T02:55:56.254Z,14.07
2018-05-12T02:58:23.819Z,14.80
2018-05-12T03:00:51.397Z,14.03
2018-05-12T03:03:19.383Z,14.90
2018-05-12T03:05:46.978Z,13.80
2018-05-12T03:08:14.526Z,13.80
2018-05-12T03:10:42.261Z,15.90
2018-05-12T03:13:10.170Z,14.68
2018-05-12T03:15:37.725Z,14.30
2018-05-12T03:18:05.347Z,13.70
2018-05-12T03:20:33.332Z,14.03
2018-05-12T03:23:00.925Z,14.13
2018-05-12T03:25:28.732Z,15.60
2018-05-12T03:27:56.257Z,14.50
2018-05-12T03:30:23.817Z,14.67
2018-05-12T03:32:51.386Z,15.27
2018-05-12T03:35:18.925Z,14.37
2018-05-12T03:37:46.485Z,15.00
2018-05-12T03:40:14.056Z,14.53
2018-05-12T03:42:41.671Z,13.90
2018-05-12T03:45:09.208Z,14.60
2018-05-12T03:47:37.337Z,14.95
2018-05-12T03:50:04.951Z,16.20
2018-05-12T03:52:32.880Z,15.33
2018-05-12T03:55:00.461Z,14.32
2018-05-12T03:57:28.437Z,14.90
2018-05-12T03:59:56.135Z,13.93
2018-05-12T04:02:23.548Z,15.43
2018-05-12T04:05:02.948Z,15.43
2018-05-12T04:07:42.241Z,13.62
2018-05-12T04:13:05.318Z,13.70
2018-05-12T04:15:33.526Z,15.30
2018-05-12T04:18:01.783Z,15.23
2018-05-12T04:20:30.336Z,13.90
2018-05-12T04:22:58.767Z,14.10
2018-05-12T04:25:26.691Z,14.75
2018-05-12T04:27:54.709Z,15.90
2018-05-12T04:30:22.978Z,15.60
2018-05-12T04:32:51.034Z,15.40
2018-05-12T04:35:19.134Z,14.90
2018-05-12T04:37:46.865Z,14.97
2018-05-12T04:40:15.054Z,15.23
2018-05-12T04:42:43.129Z,15.70
2018-05-12T04:45:11.561Z,15.57
2018-05-12T04:47:39.763Z,15.37
2018-05-12T04:50:07.703Z,15.43
2018-05-12T04:52:35.939Z,14.37
2018-05-12T04:55:03.904Z,14.27
2018-05-12T04:57:31.892Z,14.20
2018-05-12T04:59:59.837Z,15.45
2018-05-12T05:02:27.640Z,15.40
2018-05-12T05:04:55.831Z,14.35
2018-05-12T05:07:24.113Z,15.53
2018-05-12T05:09:51.867Z,13.75
2018-05-12T05:12:19.946Z,16.47
2018-05-12T05:14:48.201Z,13.88
2018-05-12T05:17:17.085Z,14.07
2018-05-12T05:19:44.905Z,13.43
2018-05-12T05:22:12.896Z,14.87
2018-05-12T05:24:41.184Z,14.03
2018-05-12T05:27:09.176Z,14.23
2018-05-12T05:29:37.265Z,15.48
2018-05-12T05:32:05.282Z,14.85
2018-05-12T05:34:33.066Z,15.60
2018-05-12T05:37:00.865Z,14.80
2018-05-12T05:39:28.660Z,16.55
2018-05-12T05:41:56.692Z,14.10
2018-05-12T05:44:24.798Z,15.40
2018-05-12T05:46:52.777Z,14.45
2018-05-12T05:49:20.958Z,14.93
2018-05-12T05:51:49.025Z,15.03
2018-05-12T05:54:17.326Z,14.95
2018-05-12T05:56:45.071Z,14.50
2018-05-12T05:59:13.134Z,13.83
2018-05-12T06:01:40.939Z,14.10
2018-05-12T06:04:09.019Z,14.53
2018-05-12T06:06:37.294Z,14.40
2018-05-12T06:09:05.875Z,14.07
2018-05-12T06:11:34.133Z,13.60
2018-05-12T06:14:02.612Z,15.40
2018-05-12T06:16:30.873Z,14.97
2018-05-12T06:18:59.590Z,13.90
2018-05-12T06:21:27.923Z,15.05
2018-05-12T06:23:55.639Z,14.20
2018-05-12T06:26:23.342Z,14.30
2018-05-12T06:28:51.276Z,14.97
2018-05-12T06:31:20.199Z,14.87
2018-05-12T06:33:48.240Z,15.10
2018-05-12T06:36:16.613Z,14.05
2018-05-12T06:38:44.295Z,15.20
2018-05-12T06:41:12.342Z,14.30
2018-05-12T06:43:40.002Z,15.25
2018-05-12T06:46:07.632Z,14.60
2018-05-12T06:48:35.287Z,14.53
2018-05-12T06:51:03.001Z,15.73
2018-05-12T06:53:31.015Z,15.50
2018-05-12T06:55:59.113Z,15.07
2018-05-12T06:58:27.161Z,16.53
2018-05-12T07:00:54.993Z,15.10
2018-05-12T07:03:23.023Z,13.13
2018-05-12T07:05:50.841Z,15.10
2018-05-12T07:08:18.529Z,15.37
2018-05-12T07:10:46.445Z,15.35
2018-05-12T07:13:14.290Z,14.90
2018-05-12T07:15:41.983Z,15.98
2018-05-12T07:18:09.857Z,15.90
2018-05-12T07:20:37.539Z,15.70
2018-05-12T07:23:06.417Z,15.60
2018-05-12T07:25:34.266Z,16.55
2018-05-12T07:28:01.999Z,15.20
2018-05-12T07:30:29.694Z,13.90
2018-05-12T07:32:57.796Z,15.23
2018-05-12T07:35:25.459Z,13.83
2018-05-12T07:37:53.187Z,17.23
2018-05-12T07:40:21.206Z,16.23
2018-05-12T07:42:48.890Z,16.58
2018-05-12T07:45:16.605Z,16.67
2018-05-12T07:47:44.715Z,15.63
2018-05-12T07:50:12.789Z,15.83
2018-05-12T07:52:40.729Z,14.20
2018-05-12T07:55:08.301Z,16.00
2018-05-12T07:57:35.868Z,17.50
2018-05-12T08:00:03.495Z,15.57
2018-05-12T08:02:31.508Z,14.77
2018-05-12T08:04:59.023Z,15.10
2018-05-12T08:07:26.615Z,16.77
2018-05-12T08:09:54.177Z,15.70
2018-05-12T08:12:21.817Z,17.90
2018-05-12T08:14:49.401Z,15.93
2018-05-12T08:17:16.937Z,18.30
2018-05-12T08:19:44.553Z,16.93
2018-05-12T08:22:12.242Z,16.00
2018-05-12T08:24:39.787Z,17.83
2018-05-12T08:32:57.417Z,18.40
2018-05-12T08:35:25.082Z,19.12
2018-05-12T08:37:52.673Z,17.17
2018-05-12T08:40:20.253Z,18.70
2018-05-12T08:42:47.856Z,15.50
2018-05-12T08:45:15.486Z,15.52
2018-05-12T08:47:43.452Z,16.60
2018-05-12T08:50:11.138Z,18.50
2018-05-12T08:52:39.638Z,16.10
2018-05-12T08:55:07.223Z,18.23
2018-05-12T08:57:34.829Z,16.77
2018-05-12T09:00:02.416Z,16.42
2018-05-12T09:02:30.013Z,18.27
2018-05-12T09:04:57.610Z,16.33
2018-05-12T09:07:25.175Z,16.80
2018-05-12T09:09:52.867Z,13.93
2018-05-12T09:12:20.453Z,14.60
2018-05-12T09:14:48.396Z,14.30
2018-05-12T09:17:15.945Z,14.67
2018-05-12T09:25:30.680Z,12.93
2018-05-12T09:28:01.090Z,14.40
2018-05-12T09:30:28.885Z,13.30
2018-05-12T09:33:02.765Z,12.47
2018-05-12T09:35:39.929Z,11.87
2018-05-12T09:38:07.750Z,9.27
2018-05-12T09:40:36.465Z,8.70
2018-05-12T09:43:04.112Z,10.93
2018-05-12T09:45:33.071Z,11.03
2018-05-12T09:48:02.785Z,11.83
2018-05-12T09:50:37.958Z,10.93
2018-05-12T09:53:06.941Z,11.80
2018-05-12T09:55:36.121Z,9.00
2018-05-12T09:58:04.122Z,7.68
2018-05-12T10:00:31.690Z,8.02
2018-05-12T10:02:59.238Z,8.63
2018-05-12T10:05:27.627Z,9.17
2018-05-12T10:07:55.398Z,7.73
2018-05-12T10:10:22.946Z,6.75
2018-05-12T10:12:54.763Z,6.20
2018-05-12T10:15:22.330Z,6.17
2018-05-12T10:17:49.932Z,7.33
2018-05-12T10:20:17.646Z,6.50
2018-05-12T10:22:45.254Z,6.20
2018-05-12T10:25:13.837Z,6.87
2018-05-12T10:27:41.353Z,8.27
2018-05-12T10:30:08.894Z,8.83
2018-05-12T10:32:51.214Z,9.40
2018-05-12T10:35:18.831Z,8.98
2018-05-12T10:37:46.401Z,7.78
2018-05-12T10:40:13.970Z,8.10
2018-05-12T10:42:41.652Z,8.10
2018-05-12T10:45:09.192Z,10.10
2018-05-12T10:47:36.765Z,9.05
2018-05-12T10:50:04.288Z,9.37
2018-05-12T10:52:31.902Z,9.32
2018-05-12T10:54:59.425Z,9.80
2018-05-12T10:57:26.989Z,8.40
2018-05-12T11:02:28.616Z,9.07
2018-05-12T11:04:56.195Z,9.27
2018-05-12T11:07:23.762Z,8.60
2018-05-12T11:09:51.291Z,7.50
2018-05-12T11:12:19.236Z,9.02
2018-05-12T11:14:46.788Z,7.85
2018-05-12T11:17:14.337Z,9.50
2018-05-12T11:19:41.912Z,8.70
2018-05-12T11:22:09.457Z,7.77
2018-05-12T11:24:37.079Z,7.00
2018-05-12T11:27:05.122Z,8.60
2018-05-12T11:29:33.096Z,7.87
2018-05-12T11:32:00.665Z,7.95
2018-05-12T11:34:28.966Z,7.62
2018-05-12T11:36:56.825Z,8.00
2018-05-12T11:39:24.381Z,8.93
2018-05-12T11:41:52.561Z,7.90
2018-05-12T11:44:20.701Z,7.60
2018-05-12T11:46:48.163Z,7.87
2018-05-12T11:49:15.739Z,8.10
2018-05-12T11:51:43.370Z,8.03
2018-05-12T11:54:11.039Z,7.97
2018-05-12T11:56:38.507Z,8.27
2018-05-12T11:59:06.050Z,7.60
2018-05-12T12:01:34.031Z,7.07
2018-05-12T12:04:01.992Z,6.93
2018-05-12T12:06:30.107Z,7.10
2018-05-12T12:08:57.646Z,6.85
2018-05-12T12:11:27.360Z,7.33
2018-05-12T12:13:54.958Z,7.60
2018-05-12T12:16:23.002Z,5.37
2018-05-12T12:18:50.565Z,6.30
2018-05-12T12:21:18.141Z,6.00
2018-05-12T12:23:45.689Z,6.03
2018-05-12T12:26:17.786Z,6.85
2018-05-12T12:28:49.129Z,5.33
2018-05-12T12:31:16.863Z,5.53
2018-05-12T12:33:44.419Z,5.87
2018-05-12T12:36:12.679Z,5.47
2018-05-12T12:38:41.325Z,5.00
2018-05-12T12:41:09.112Z,5.40
2018-05-12T12:43:37.063Z,5.40
2018-05-12T12:46:05.027Z,5.53
2018-05-12T12:48:32.574Z,4.97
2018-05-12T12:51:00.107Z,5.50
2018-05-12T12:53:27.684Z,5.30
2018-05-12T12:55:55.239Z,5.37
2018-05-12T12:58:22.826Z,5.70
2018-05-12T13:00:50.381Z,6.13
2018-05-12T13:03:27.576Z,5.43
2018-05-12T13:05:55.137Z,6.60
2018-05-12T13:08:22.711Z,5.15
2018-05-12T13:10:50.687Z,4.90
2018-05-12T13:13:18.257Z,5.57
2018-05-12T13:15:45.823Z,5.47
2018-05-12T13:18:14.178Z,5.67
2018-05-12T13:20:46.022Z,5.50
2018-05-12T13:23:13.603Z,6.20
2018-05-12T13:25:41.568Z,5.90
2018-05-12T13:28:09.518Z,5.63
2018-05-12T13:30:37.113Z,6.37
2018-05-12T13:33:04.656Z,6.33
2018-05-12T13:35:32.632Z,6.00
2018-05-12T13:38:00.623Z,6.40
2018-05-12T13:40:28.260Z,6.62
2018-05-12T13:42:55.727Z,6.40
2018-05-12T13:45:24.156Z,5.93
2018-05-12T13:47:51.757Z,6.07
2018-05-12T13:50:19.791Z,6.40
2018-05-12T13:52:47.331Z,6.20
2018-05-12T13:55:14.900Z,5.53
2018-05-12T13:57:42.555Z,6.40
2018-05-12T14:00:10.806Z,6.37
2018-05-12T14:02:38.355Z,5.87
2018-05-12T14:05:05.944Z,6.35
2018-05-12T14:07:33.564Z,6.00
2018-05-12T14:10:01.501Z,7.40
2018-05-12T14:12:29.072Z,7.10
2018-05-12T14:14:56.621Z,6.20
2018-05-12T14:17:24.616Z,7.00
2018-05-12T14:19:52.561Z,6.77
2018-05-12T14:22:20.100Z,5.55
2018-05-12T14:24:47.659Z,5.70
2018-05-12T14:27:16.101Z,6.90
2018-05-12T14:29:44.615Z,7.00
2018-05-12T14:32:12.171Z,6.73
2018-05-12T14:34:39.757Z,6.27
2018-05-12T14:37:07.354Z,6.80
2018-05-12T14:39:35.318Z,6.40
2018-05-12T14:42:02.869Z,5.47
2018-05-12T14:44:30.410Z,5.53
2018-05-12T14:46:58.026Z,6.77
2018-05-12T14:49:25.583Z,6.70
2018-05-12T14:51:53.540Z,7.20
2018-05-12T14:54:21.065Z,6.03
2018-05-12T14:56:48.692Z,6.63
2018-05-12T14:59:16.256Z,6.33
2018-05-12T15:01:44.769Z,6.53
2018-05-12T15:04:12.323Z,7.37
2018-05-12T15:06:39.883Z,6.80
2018-05-12T15:09:07.407Z,6.12
2018-05-12T15:11:34.994Z,6.93
2018-05-12T15:14:02.541Z,7.17
2018-05-12T15:16:30.104Z,6.90
2018-05-12T15:18:57.712Z,6.97
2018-05-12T15:21:25.356Z,6.73
2018-05-12T15:23:52.827Z,6.17
2018-05-12T15:26:20.844Z,5.50
2018-05-12T15:28:48.421Z,6.60
2018-05-12T15:31:16.288Z,5.85
2018-05-12T15:33:43.848Z,5.97
2018-05-12T15:36:11.410Z,5.97
2018-05-12T15:38:39.608Z,6.40
2018-05-12T15:41:08.198Z,7.33
2018-05-12T15:43:36.274Z,6.40
2018-05-12T15:46:03.840Z,6.43
2018-05-12T15:48:31.445Z,6.60
2018-05-12T15:50:59.044Z,7.10
2018-05-12T15:53:26.596Z,6.80
2018-05-12T15:55:54.903Z,6.80
2018-05-12T15:58:22.704Z,5.63
2018-05-12T16:00:50.251Z,7.03
2018-05-12T16:03:17.890Z,6.90
2018-05-12T16:05:45.909Z,6.37
2018-05-12T16:08:14.038Z,6.53
2018-05-12T16:10:42.083Z,7.13
2018-05-12T16:13:10.075Z,6.35
2018-05-12T16:15:37.625Z,6.90
2018-05-12T16:18:05.592Z,6.10
2018-05-12T16:20:33.135Z,5.80
2018-05-12T16:23:01.113Z,6.93
2018-05-12T16:25:29.099Z,6.17
2018-05-12T16:27:57.103Z,7.10
2018-05-12T16:30:24.654Z,6.07
2018-05-12T16:32:52.223Z,7.00
2018-05-12T16:35:20.046Z,5.90
2018-05-12T16:37:48.159Z,6.13
2018-05-12T16:40:15.818Z,6.17
2018-05-12T16:42:43.487Z,6.78
2018-05-12T16:45:11.484Z,6.33
2018-05-12T16:47:40.399Z,6.30
2018-05-12T16:50:08.044Z,5.47
2018-05-12T16:52:36.038Z,6.77
2018-05-12T16:55:04.018Z,6.00
2018-05-12T16:57:31.932Z,5.87
2018-05-12T16:59:59.453Z,6.68
2018-05-12T17:02:27.018Z,6.20
2018-05-12T17:04:54.684Z,6.20
2018-05-12T17:07:22.296Z,6.57
2018-05-12T17:09:50.403Z,6.18
2018-05-12T17:12:18.103Z,5.90
2018-05-12T17:14:45.560Z,6.53
2018-05-12T17:17:13.147Z,6.37
2018-05-12T17:19:41.113Z,6.90
2018-05-12T17:22:08.707Z,7.00
2018-05-12T17:24:36.264Z,7.10
2018-05-12T17:27:03.822Z,7.00
2018-05-12T17:29:31.766Z,6.67
2018-05-12T17:31:59.921Z,6.40
2018-05-12T17:34:28.325Z,7.30
2018-05-12T17:36:56.315Z,7.80
2018-05-12T17:39:23.874Z,6.80
2018-05-12T17:41:51.488Z,6.90
2018-05-12T17:44:19.759Z,6.87
2018-05-12T17:46:47.794Z,7.37
2018-05-12T17:49:15.379Z,6.67
2018-05-12T17:51:43.838Z,7.07
2018-05-12T17:54:11.420Z,6.73
2018-05-12T17:56:38.982Z,7.63
2018-05-12T17:59:06.638Z,7.00
2018-05-12T18:01:34.178Z,7.40
2018-05-12T18:04:01.796Z,7.30
2018-05-12T18:06:29.332Z,6.90
2018-05-12T18:08:56.916Z,6.97
2018-05-12T18:11:24.468Z,8.05
2018-05-12T18:13:52.037Z,6.13
2018-05-12T18:16:19.645Z,7.57
2018-05-12T18:18:47.208Z,6.43
2018-05-12T18:21:14.780Z,6.90
2018-05-12T18:23:43.369Z,6.97
2018-05-12T18:26:10.937Z,7.20
2018-05-12T18:28:39.327Z,7.00
2018-05-12T18:31:06.886Z,7.33
2018-05-12T18:33:38.696Z,7.10
2018-05-12T18:36:06.866Z,7.00
2018-05-12T18:38:34.448Z,7.18
2018-05-12T18:41:02.448Z,7.87
2018-05-12T18:43:30.312Z,7.50
2018-05-12T18:45:58.363Z,7.80
2018-05-12T18:48:26.620Z,7.30
2018-05-12T18:50:54.479Z,6.80
2018-05-12T18:53:22.076Z,7.67
2018-05-12T18:55:49.818Z,7.20
2018-05-12T18:58:17.459Z,7.00
2018-05-12T19:00:45.536Z,7.10
2018-05-12T19:03:13.070Z,6.97
2018-05-12T19:05:41.093Z,7.00
2018-05-12T19:08:08.684Z,7.70
2018-05-12T19:10:36.336Z,8.20
2018-05-12T19:13:04.910Z,7.70
2018-05-12T19:15:32.519Z,7.70
2018-05-12T19:18:00.677Z,7.47
2018-05-12T19:20:28.642Z,7.57
2018-05-12T19:22:58.918Z,7.40
2018-05-12T19:25:26.433Z,7.90
2018-05-12T19:27:54.399Z,7.47
2018-05-12T19:30:22.406Z,7.73
2018-05-12T19:32:50.363Z,8.23
2018-05-12T19:35:17.868Z,8.20
2018-05-12T19:37:45.469Z,8.30
2018-05-12T19:40:13.067Z,7.30
2018-05-12T19:42:41.037Z,7.07
2018-05-12T19:45:09.036Z,7.37
2018-05-12T19:47:36.673Z,7.70
2018-05-12T19:50:04.238Z,7.40
2018-05-12T19:52:31.798Z,7.83
2018-05-12T19:54:59.358Z,8.20
2018-05-12T19:57:26.966Z,8.47
2018-05-12T19:59:54.892Z,7.82
2018-05-12T20:02:22.451Z,7.77
2018-05-12T20:04:50.707Z,8.18
2018-05-12T20:07:18.313Z,8.50
2018-05-12T20:09:47.254Z,8.80
2018-05-12T20:12:15.000Z,8.60
2018-05-12T20:14:42.683Z,7.40
2018-05-12T20:17:10.709Z,8.63
2018-05-12T20:19:38.682Z,7.47
2018-05-12T20:22:06.702Z,7.53
2018-05-12T20:24:34.395Z,11.80
2018-05-12T20:27:01.969Z,9.93
2018-05-12T20:29:29.518Z,10.10
2018-05-12T20:31:57.125Z,9.48
2018-05-12T20:34:24.913Z,8.93
2018-05-12T20:36:52.485Z,10.37
2018-05-12T20:39:20.086Z,10.20
2018-05-12T20:41:48.061Z,10.50
2018-05-12T20:44:15.723Z,11.33
2018-05-12T20:46:43.659Z,11.60
2018-05-12T20:49:12.817Z,11.00
2018-05-12T20:51:40.377Z,11.90
2018-05-12T20:54:07.963Z,11.70
2018-05-12T20:56:35.608Z,11.20
2018-05-12T20:59:03.711Z,11.63
2018-05-12T21:01:31.264Z,10.52
2018-05-12T21:03:58.840Z,10.70
2018-05-12T21:06:27.157Z,10.30
2018-05-12T21:08:55.006Z,9.80
2018-05-12T21:11:22.628Z,9.10
2018-05-12T21:13:50.207Z,8.30
2018-05-12T21:16:18.694Z,8.37
2018-05-12T21:18:46.645Z,8.70
2018-05-12T21:21:14.228Z,7.73
2018-05-12T21:23:42.156Z,8.30
2018-05-12T21:26:10.478Z,7.25
2018-05-12T21:28:38.447Z,7.80
2018-05-12T21:31:06.394Z,7.90
2018-05-12T21:33:34.486Z,7.03
2018-05-12T21:36:02.201Z,8.43
2018-05-12T21:38:29.746Z,7.43
2018-05-12T21:40:57.327Z,8.20
2018-05-12T21:43:24.871Z,7.30
2018-05-12T21:45:52.804Z,8.45
2018-05-12T21:48:20.328Z,7.70
2018-05-12T21:50:47.867Z,7.32
2018-05-12T21:53:15.420Z,7.20
2018-05-12T21:55:42.961Z,7.70
2018-05-12T21:58:10.527Z,7.57
2018-05-12T22:00:38.079Z,8.70
2018-05-12T22:03:05.669Z,9.60
2018-05-12T22:05:33.220Z,10.90
2018-05-12T22:08:00.868Z,11.75
2018-05-12T22:10:28.447Z,11.47
2018-05-12T22:12:56.051Z,12.23
2018-05-12T22:15:24.091Z,12.13
2018-05-12T22:17:52.620Z,12.50
2018-05-12T22:20:20.874Z,13.20
2018-05-12T22:22:49.181Z,12.73
2018-05-12T22:25:20.790Z,12.82
2018-05-12T22:27:51.372Z,11.80
2018-05-12T22:30:24.141Z,11.53
2018-05-12T22:32:51.694Z,11.33
2018-05-12T22:35:19.712Z,11.60
2018-05-12T22:37:47.313Z,11.10
2018-05-12T22:40:15.256Z,11.53
2018-05-12T22:42:43.702Z,10.77
2018-05-12T22:45:11.270Z,11.13
2018-05-12T22:47:38.850Z,10.47
2018-05-12T22:50:06.461Z,10.47
2018-05-12T22:52:35.579Z,9.80
2018-05-12T22:55:03.115Z,9.50
2018-05-12T22:57:30.707Z,9.00
2018-05-12T22:59:58.302Z,9.82
2018-05-12T23:02:25.849Z,9.20
2018-05-12T23:04:53.427Z,10.43
2018-05-12T23:07:21.407Z,9.50
2018-05-12T23:09:49.346Z,10.10
2018-05-12T23:12:16.929Z,9.40
2018-05-12T23:14:44.896Z,9.20
2018-05-12T23:17:12.455Z,9.47
2018-05-12T23:19:40.423Z,9.83
2018-05-12T23:22:08.046Z,9.43
2018-05-12T23:24:35.591Z,8.70
2018-05-12T23:27:03.235Z,9.50
2018-05-12T23:29:33.768Z,8.52
2018-05-12T23:32:01.804Z,9.53
2018-05-12T23:34:30.041Z,8.60
2018-05-12T23:36:57.625Z,8.20
2018-05-12T23:39:25.196Z,9.20
2018-05-12T23:41:52.808Z,8.63
2018-05-12T23:44:20.355Z,7.63
2018-05-12T23:46:47.934Z,8.60
2018-05-12T23:49:16.162Z,8.20
2018-05-12T23:51:44.213Z,8.60
2018-05-12T23:54:11.809Z,8.40
2018-05-12T23:56:39.713Z,8.13
2018-05-12T23:59:07.255Z,7.83
